createdAt,value
2022-11-07T00:03:26.128Z,13.90
2022-11-07T00:09:28.678Z,14.00
2022-11-07T00:15:31.148Z,14.00
2022-11-07T00:21:33.400Z,14.00
2022-11-07T00:27:35.680Z,14.00
2022-11-07T00:33:38.475Z,14.00
2022-11-07T00:39:40.879Z,14.00
2022-11-07T00:45:45.244Z,14.00
2022-11-07T00:51:47.370Z,14.00
2022-11-07T00:57:49.520Z,13.90
2022-11-07T01:04:10.656Z,13.90
2022-11-07T01:10:12.692Z,13.90
2022-11-07T01:16:15.056Z,13.90
2022-11-07T01:22:17.183Z,13.90
2022-11-07T01:28:19.283Z,13.90
2022-11-07T01:34:21.523Z,14.00
2022-11-07T01:40:23.806Z,14.00
2022-11-07T01:46:35.304Z,14.00
2022-11-07T01:52:42.153Z,13.90
2022-11-07T01:58:45.821Z,14.00
2022-11-07T02:04:48.307Z,14.00
2022-11-07T02:10:51.444Z,14.00
2022-11-07T02:16:54.029Z,13.90
2022-11-07T02:23:09.464Z,14.00
2022-11-07T02:29:13.273Z,14.00
2022-11-07T02:35:34.472Z,14.00
2022-11-07T02:41:36.670Z,14.00
2022-11-07T02:47:38.859Z,14.00
2022-11-07T02:53:41.167Z,14.00
2022-11-07T02:59:43.333Z,13.90
2022-11-07T03:05:45.492Z,13.90
2022-11-07T03:11:48.083Z,14.00
2022-11-07T03:17:50.265Z,14.00
2022-11-07T03:23:52.654Z,14.00
2022-11-07T03:29:55.027Z,14.00
2022-11-07T03:35:57.372Z,13.90
2022-11-07T03:41:59.635Z,13.90
2022-11-07T03:48:01.896Z,13.90
2022-11-07T03:54:04.310Z,13.80
2022-11-07T04:00:07.602Z,13.80
2022-11-07T04:06:14.022Z,13.70
2022-11-07T04:12:35.053Z,13.80
2022-11-07T04:18:37.288Z,13.80
2022-11-07T04:24:45.402Z,13.80
2022-11-07T04:30:48.160Z,13.70
2022-11-07T04:36:50.490Z,13.60
2022-11-07T04:42:52.970Z,13.60
2022-11-07T04:48:55.154Z,13.60
2022-11-07T04:54:57.378Z,13.50
2022-11-07T05:00:59.530Z,13.40
2022-11-07T05:07:01.629Z,13.40
2022-11-07T05:13:03.752Z,13.50
2022-11-07T05:19:06.030Z,13.50
2022-11-07T05:25:08.833Z,13.50
2022-11-07T05:31:15.366Z,13.50
2022-11-07T05:37:17.826Z,13.60
2022-11-07T05:43:20.095Z,13.50
2022-11-07T05:49:22.619Z,13.50
2022-11-07T05:55:25.863Z,13.60
2022-11-07T06:01:28.037Z,13.40
2022-11-07T06:07:33.167Z,13.50
2022-11-07T06:13:35.440Z,13.60
2022-11-07T06:19:37.719Z,13.70
2022-11-07T06:25:40.077Z,13.70
2022-11-07T06:31:42.255Z,13.60
2022-11-07T06:37:44.652Z,13.60
2022-11-07T06:43:46.846Z,13.70
2022-11-07T06:49:49.055Z,13.90
2022-11-07T06:55:51.390Z,14.00
2022-11-07T07:01:53.776Z,14.10
2022-11-07T07:07:56.347Z,14.50
2022-11-07T07:14:02.100Z,14.40
2022-11-07T07:20:05.729Z,14.30
2022-11-07T07:26:12.920Z,14.10
2022-11-07T07:32:15.108Z,14.40
2022-11-07T07:38:17.302Z,14.40
2022-11-07T07:44:19.595Z,14.20
2022-11-07T07:50:21.807Z,14.40
2022-11-07T07:56:24.043Z,14.50
2022-11-07T08:02:26.115Z,14.60
2022-11-07T08:08:31.419Z,15.70
2022-11-07T08:14:36.314Z,15.30
2022-11-07T08:20:38.478Z,15.10
2022-11-07T08:26:40.760Z,15.20
2022-11-07T08:32:43.000Z,15.20
2022-11-07T08:38:45.118Z,14.80
2022-11-07T08:44:47.430Z,15.40
2022-11-07T08:50:56.518Z,15.90
2022-11-07T08:56:58.753Z,16.20
2022-11-07T09:09:28.945Z,16.60
2022-11-07T09:15:31.160Z,17.20
2022-11-07T09:21:33.311Z,17.10
2022-11-07T09:27:36.187Z,17.10
2022-11-07T09:33:38.403Z,16.90
2022-11-07T09:39:40.536Z,17.30
2022-11-07T09:46:00.972Z,17.10
2022-11-07T09:52:41.231Z,17.20
2022-11-07T09:58:44.769Z,17.30
2022-11-07T10:04:49.954Z,17.60
2022-11-07T10:11:01.350Z,17.70
2022-11-07T10:17:34.884Z,17.50
2022-11-07T10:23:54.410Z,17.70
2022-11-07T10:29:56.532Z,17.90
2022-11-07T10:36:22.128Z,17.90
2022-11-07T10:42:29.002Z,18.60
2022-11-07T10:48:33.416Z,18.50
2022-11-07T10:54:35.519Z,18.30
2022-11-07T11:00:41.758Z,18.60
2022-11-07T11:06:43.972Z,19.00
2022-11-07T11:12:47.776Z,18.60
2022-11-07T11:19:00.543Z,18.90
2022-11-07T11:25:17.519Z,19.80
2022-11-07T11:31:26.070Z,23.20
2022-11-07T11:37:28.988Z,24.30
2022-11-07T11:43:44.613Z,25.30
2022-11-07T11:49:56.302Z,25.80
2022-11-07T11:56:07.436Z,22.50
2022-11-07T12:02:47.763Z,19.50
2022-11-07T12:08:56.812Z,18.70
2022-11-07T12:15:28.938Z,18.40
2022-11-07T12:21:34.933Z,17.90
2022-11-07T12:28:03.814Z,17.90
2022-11-07T12:34:14.687Z,17.40
2022-11-07T12:40:35.777Z,17.20
2022-11-07T12:47:08.614Z,17.00
2022-11-07T12:53:26.767Z,16.80
2022-11-07T12:59:31.563Z,16.90
2022-11-07T13:05:50.441Z,16.60
2022-11-07T13:12:09.286Z,16.40
2022-11-07T13:18:25.826Z,16.30
2022-11-07T13:24:29.896Z,16.20
2022-11-07T13:30:37.093Z,16.10
2022-11-07T13:36:39.697Z,16.00
2022-11-07T13:42:44.329Z,15.90
2022-11-07T13:48:55.669Z,15.80
2022-11-07T13:55:06.122Z,15.80
2022-11-07T14:01:13.350Z,15.70
2022-11-07T14:07:15.665Z,15.60
2022-11-07T14:13:41.499Z,15.50
2022-11-07T14:19:44.808Z,15.40
2022-11-07T14:25:55.985Z,15.30
2022-11-07T14:32:00.455Z,15.10
2022-11-07T14:38:12.003Z,15.00
2022-11-07T14:44:17.958Z,14.90
2022-11-07T14:50:25.224Z,14.70
2022-11-07T14:56:34.215Z,14.50
2022-11-07T15:02:36.752Z,14.20
2022-11-07T15:08:39.030Z,14.00
2022-11-07T15:14:41.374Z,13.90
2022-11-07T15:20:43.910Z,13.80
2022-11-07T15:26:46.048Z,13.80
2022-11-07T15:32:48.888Z,13.80
2022-11-07T15:38:52.021Z,13.80
2022-11-07T15:44:54.153Z,13.90
2022-11-07T15:50:56.804Z,13.80
2022-11-07T15:57:33.100Z,13.70
2022-11-07T16:04:11.526Z,13.60
2022-11-07T16:10:26.194Z,13.60
2022-11-07T16:16:32.764Z,13.50
2022-11-07T16:22:35.024Z,13.60
2022-11-07T16:28:37.565Z,13.50
2022-11-07T16:34:40.066Z,13.40
2022-11-07T16:40:42.680Z,13.30
2022-11-07T16:46:45.007Z,13.30
2022-11-07T16:52:47.597Z,13.20
2022-11-07T16:58:50.089Z,13.10
2022-11-07T17:04:54.765Z,13.00
2022-11-07T17:10:57.254Z,12.90
2022-11-07T17:17:01.997Z,12.90
2022-11-07T17:23:04.059Z,13.00
2022-11-07T17:29:08.929Z,12.90
2022-11-07T17:35:31.289Z,12.90
2022-11-07T17:41:33.699Z,12.80
2022-11-07T17:47:36.136Z,12.70
2022-11-07T17:53:38.946Z,12.60
2022-11-07T17:59:45.712Z,12.60
2022-11-07T18:05:49.522Z,12.50
2022-11-07T18:11:51.949Z,12.60
2022-11-07T18:17:54.204Z,12.60
2022-11-07T18:23:57.745Z,12.70
2022-11-07T18:30:00.011Z,12.70
2022-11-07T18:36:07.665Z,12.80
2022-11-07T18:42:09.913Z,12.90
2022-11-07T18:48:12.267Z,12.80
2022-11-07T18:54:15.065Z,12.80
2022-11-07T19:00:17.715Z,12.80
2022-11-07T19:06:21.626Z,12.70
2022-11-07T19:12:24.138Z,12.70
2022-11-07T19:18:26.280Z,12.60
2022-11-07T19:24:28.524Z,12.40
2022-11-07T19:30:33.610Z,12.40
2022-11-07T19:36:37.340Z,12.40
2022-11-07T19:42:39.601Z,12.40
2022-11-07T19:48:42.935Z,12.30
2022-11-07T19:54:45.754Z,12.20
2022-11-07T20:00:47.595Z,12.10
2022-11-07T20:06:50.657Z,11.90
2022-11-07T20:12:53.118Z,11.90
2022-11-07T20:18:55.291Z,11.80
2022-11-07T20:24:57.394Z,11.70
2022-11-07T20:30:59.461Z,11.60
2022-11-07T20:37:01.885Z,11.60
2022-11-07T20:43:05.597Z,11.40
2022-11-07T20:49:11.348Z,11.40
2022-11-07T20:55:13.605Z,11.20
2022-11-07T21:01:21.619Z,11.20
2022-11-07T21:07:23.861Z,11.10
2022-11-07T21:13:26.168Z,11.00
2022-11-07T21:19:29.561Z,11.00
2022-11-07T21:25:31.863Z,10.90
2022-11-07T21:31:35.423Z,10.90
2022-11-07T21:37:37.554Z,10.80
2022-11-07T21:43:39.729Z,10.80
2022-11-07T21:49:41.832Z,10.80
2022-11-07T21:55:43.965Z,10.80
2022-11-07T22:01:48.911Z,10.70
2022-11-07T22:07:51.443Z,10.70
2022-11-07T22:13:53.852Z,10.70
2022-11-07T22:19:55.970Z,10.70
2022-11-07T22:26:10.659Z,10.60
2022-11-07T22:32:12.812Z,10.70
2022-11-07T22:38:14.886Z,10.80
2022-11-07T22:44:17.081Z,11.00
2022-11-07T22:50:19.503Z,11.20
2022-11-07T22:56:21.723Z,11.30
2022-11-07T23:02:24.031Z,11.40
2022-11-07T23:08:26.393Z,11.40
2022-11-07T23:14:28.565Z,11.50
2022-11-07T23:20:49.451Z,11.60
2022-11-07T23:26:52.020Z,11.60
2022-11-07T23:32:54.132Z,11.70
2022-11-07T23:38:56.485Z,11.80
2022-11-07T23:45:17.290Z,11.80
2022-11-07T23:51:19.413Z,11.90
2022-11-07T23:57:21.759Z,11.90
